sensor_id;sensor_type;location;lat;lon;timestamp;P1;durP1;ratioP1;P2;durP2;ratioP2
4569;SDS011;2297;51.442;6.996;2023-01-19T00:00:36;13.90;;;8.23;;
4569;SDS011;2297;51.442;6.996;2023-01-19T00:03:03;15.82;;;9.07;;
4569;SDS011;2297;51.442;6.996;2023-01-19T00:05:30;14.65;;;8.63;;
4569;SDS011;2297;51.442;6.996;2023-01-19T00:07:57;16.23;;;9.10;;
4569;SDS011;2297;51.442;6.996;2023-01-19T00:10:38;18.60;;;9.15;;
4569;SDS011;2297;51.442;6.996;2023-01-19T00:13:05;16.50;;;9.00;;
4569;SDS011;2297;51.442;6.996;2023-01-19T00:15:33;16.05;;;8.75;;
4569;SDS011;2297;51.442;6.996;2023-01-19T00:17:59;17.30;;;9.38;;
4569;SDS011;2297;51.442;6.996;2023-01-19T00:20:26;17.90;;;9.30;;
4569;SDS011;2297;51.442;6.996;2023-01-19T00:22:56;14.85;;;8.57;;
4569;SDS011;2297;51.442;6.996;2023-01-19T00:25:22;17.90;;;9.73;;
4569;SDS011;2297;51.442;6.996;2023-01-19T00:27:49;18.83;;;9.88;;
4569;SDS011;2297;51.442;6.996;2023-01-19T00:30:16;17.70;;;9.48;;
4569;SDS011;2297;51.442;6.996;2023-01-19T00:32:44;15.68;;;8.85;;
4569;SDS011;2297;51.442;6.996;2023-01-19T00:35:11;16.70;;;9.50;;
4569;SDS011;2297;51.442;6.996;2023-01-19T00:37:37;17.02;;;9.45;;
4569;SDS011;2297;51.442;6.996;2023-01-19T00:40:05;15.07;;;9.35;;
4569;SDS011;2297;51.442;6.996;2023-01-19T00:42:32;14.27;;;8.70;;
4569;SDS011;2297;51.442;6.996;2023-01-19T00:45:05;18.90;;;9.70;;
4569;SDS011;2297;51.442;6.996;2023-01-19T00:47:33;18.02;;;9.93;;
4569;SDS011;2297;51.442;6.996;2023-01-19T00:50:01;15.27;;;8.82;;
4569;SDS011;2297;51.442;6.996;2023-01-19T00:52:27;16.67;;;9.52;;
4569;SDS011;2297;51.442;6.996;2023-01-19T00:54:54;23.40;;;11.55;;
4569;SDS011;2297;51.442;6.996;2023-01-19T00:57:20;19.05;;;10.48;;
4569;SDS011;2297;51.442;6.996;2023-01-19T00:59:47;17.20;;;9.25;;
4569;SDS011;2297;51.442;6.996;2023-01-19T01:02:14;17.40;;;9.20;;
4569;SDS011;2297;51.442;6.996;2023-01-19T01:04:41;17.55;;;9.95;;
4569;SDS011;2297;51.442;6.996;2023-01-19T01:07:09;20.63;;;9.57;;
4569;SDS011;2297;51.442;6.996;2023-01-19T01:09:35;16.55;;;9.27;;
4569;SDS011;2297;51.442;6.996;2023-01-19T01:12:02;17.52;;;9.50;;
4569;SDS011;2297;51.442;6.996;2023-01-19T01:14:29;14.52;;;8.32;;
4569;SDS011;2297;51.442;6.996;2023-01-19T01:16:56;18.90;;;9.75;;
4569;SDS011;2297;51.442;6.996;2023-01-19T01:19:22;16.73;;;8.90;;
4569;SDS011;2297;51.442;6.996;2023-01-19T01:21:49;15.70;;;9.45;;
4569;SDS011;2297;51.442;6.996;2023-01-19T01:24:17;16.25;;;8.90;;
4569;SDS011;2297;51.442;6.996;2023-01-19T01:26:44;17.58;;;9.10;;
4569;SDS011;2297;51.442;6.996;2023-01-19T01:29:11;16.10;;;9.32;;
4569;SDS011;2297;51.442;6.996;2023-01-19T01:31:38;29.80;;;14.57;;
4569;SDS011;2297;51.442;6.996;2023-01-19T01:34:05;18.05;;;9.13;;
4569;SDS011;2297;51.442;6.996;2023-01-19T01:36:31;17.85;;;8.57;;
4569;SDS011;2297;51.442;6.996;2023-01-19T01:38:58;16.40;;;9.18;;
4569;SDS011;2297;51.442;6.996;2023-01-19T01:41:27;16.92;;;8.55;;
4569;SDS011;2297;51.442;6.996;2023-01-19T01:43:54;17.60;;;9.10;;
4569;SDS011;2297;51.442;6.996;2023-01-19T01:46:24;14.75;;;8.75;;
4569;SDS011;2297;51.442;6.996;2023-01-19T01:48:53;16.42;;;9.27;;
4569;SDS011;2297;51.442;6.996;2023-01-19T01:51:27;18.05;;;9.82;;
4569;SDS011;2297;51.442;6.996;2023-01-19T01:54:03;17.42;;;9.40;;
4569;SDS011;2297;51.442;6.996;2023-01-19T01:56:37;14.70;;;9.35;;
4569;SDS011;2297;51.442;6.996;2023-01-19T01:59:07;18.42;;;9.68;;
4569;SDS011;2297;51.442;6.996;2023-01-19T02:01:37;13.50;;;8.23;;
4569;SDS011;2297;51.442;6.996;2023-01-19T02:04:18;16.05;;;8.95;;
4569;SDS011;2297;51.442;6.996;2023-01-19T02:06:54;17.45;;;8.95;;
4569;SDS011;2297;51.442;6.996;2023-01-19T02:09:38;15.90;;;9.23;;
4569;SDS011;2297;51.442;6.996;2023-01-19T02:12:24;18.70;;;9.13;;
4569;SDS011;2297;51.442;6.996;2023-01-19T02:15:15;18.35;;;9.05;;
4569;SDS011;2297;51.442;6.996;2023-01-19T02:17:43;15.77;;;8.52;;
4569;SDS011;2297;51.442;6.996;2023-01-19T02:20:11;22.15;;;9.65;;
4569;SDS011;2297;51.442;6.996;2023-01-19T02:22:40;16.58;;;8.85;;
4569;SDS011;2297;51.442;6.996;2023-01-19T02:25:14;17.58;;;8.82;;
4569;SDS011;2297;51.442;6.996;2023-01-19T02:27:42;15.85;;;9.35;;
4569;SDS011;2297;51.442;6.996;2023-01-19T02:30:09;16.73;;;9.02;;
4569;SDS011;2297;51.442;6.996;2023-01-19T02:32:37;15.65;;;9.10;;
4569;SDS011;2297;51.442;6.996;2023-01-19T02:35:04;15.77;;;8.82;;
4569;SDS011;2297;51.442;6.996;2023-01-19T02:37:32;19.77;;;9.25;;
4569;SDS011;2297;51.442;6.996;2023-01-19T02:40:04;18.30;;;9.50;;
4569;SDS011;2297;51.442;6.996;2023-01-19T02:42:36;18.55;;;8.82;;
4569;SDS011;2297;51.442;6.996;2023-01-19T02:45:09;14.07;;;8.73;;
4569;SDS011;2297;51.442;6.996;2023-01-19T02:47:38;17.80;;;8.52;;
4569;SDS011;2297;51.442;6.996;2023-01-19T02:56:06;17.02;;;8.35;;
4569;SDS011;2297;51.442;6.996;2023-01-19T02:58:53;16.55;;;8.90;;
4569;SDS011;2297;51.442;6.996;2023-01-19T03:01:29;17.83;;;8.88;;
4569;SDS011;2297;51.442;6.996;2023-01-19T03:04:07;18.85;;;8.88;;
4569;SDS011;2297;51.442;6.996;2023-01-19T03:06:41;22.05;;;9.30;;
4569;SDS011;2297;51.442;6.996;2023-01-19T03:09:13;14.80;;;9.15;;
4569;SDS011;2297;51.442;6.996;2023-01-19T03:11:50;18.73;;;9.30;;
4569;SDS011;2297;51.442;6.996;2023-01-19T03:14:27;17.90;;;9.15;;
4569;SDS011;2297;51.442;6.996;2023-01-19T03:16:58;17.60;;;8.88;;
4569;SDS011;2297;51.442;6.996;2023-01-19T03:19:31;15.57;;;8.85;;
4569;SDS011;2297;51.442;6.996;2023-01-19T03:22:01;15.82;;;8.90;;
4569;SDS011;2297;51.442;6.996;2023-01-19T03:24:32;16.00;;;8.93;;
4569;SDS011;2297;51.442;6.996;2023-01-19T03:27:04;20.08;;;9.20;;
4569;SDS011;2297;51.442;6.996;2023-01-19T03:29:36;15.30;;;8.70;;
4569;SDS011;2297;51.442;6.996;2023-01-19T03:32:14;16.10;;;8.13;;
4569;SDS011;2297;51.442;6.996;2023-01-19T03:34:43;18.08;;;8.13;;
4569;SDS011;2297;51.442;6.996;2023-01-19T03:37:12;16.60;;;8.25;;
4569;SDS011;2297;51.442;6.996;2023-01-19T03:39:41;19.27;;;8.88;;
4569;SDS011;2297;51.442;6.996;2023-01-19T03:42:08;15.02;;;8.43;;
4569;SDS011;2297;51.442;6.996;2023-01-19T03:44:40;16.08;;;8.35;;
4569;SDS011;2297;51.442;6.996;2023-01-19T03:47:09;18.90;;;7.97;;
4569;SDS011;2297;51.442;6.996;2023-01-19T03:49:38;12.90;;;7.45;;
4569;SDS011;2297;51.442;6.996;2023-01-19T03:52:08;15.80;;;8.38;;
4569;SDS011;2297;51.442;6.996;2023-01-19T03:54:36;13.43;;;7.78;;
4569;SDS011;2297;51.442;6.996;2023-01-19T03:57:03;14.77;;;8.18;;
4569;SDS011;2297;51.442;6.996;2023-01-19T03:59:30;13.98;;;8.07;;
4569;SDS011;2297;51.442;6.996;2023-01-19T04:01:58;12.40;;;7.63;;
4569;SDS011;2297;51.442;6.996;2023-01-19T04:04:24;18.13;;;8.48;;
4569;SDS011;2297;51.442;6.996;2023-01-19T04:06:51;14.90;;;7.97;;
4569;SDS011;2297;51.442;6.996;2023-01-19T04:09:17;16.15;;;8.63;;
4569;SDS011;2297;51.442;6.996;2023-01-19T04:11:44;14.35;;;8.07;;
4569;SDS011;2297;51.442;6.996;2023-01-19T04:14:11;18.98;;;9.10;;
4569;SDS011;2297;51.442;6.996;2023-01-19T04:16:37;14.07;;;8.57;;
4569;SDS011;2297;51.442;6.996;2023-01-19T04:19:05;17.23;;;8.75;;
4569;SDS011;2297;51.442;6.996;2023-01-19T04:21:32;15.25;;;8.60;;
4569;SDS011;2297;51.442;6.996;2023-01-19T04:23:59;18.08;;;9.10;;
4569;SDS011;2297;51.442;6.996;2023-01-19T04:26:25;17.95;;;9.07;;
4569;SDS011;2297;51.442;6.996;2023-01-19T04:28:52;18.02;;;9.48;;
4569;SDS011;2297;51.442;6.996;2023-01-19T04:31:19;15.93;;;8.70;;
4569;SDS011;2297;51.442;6.996;2023-01-19T04:33:47;16.80;;;8.70;;
4569;SDS011;2297;51.442;6.996;2023-01-19T04:36:15;18.23;;;9.32;;
4569;SDS011;2297;51.442;6.996;2023-01-19T04:38:42;16.85;;;9.18;;
4569;SDS011;2297;51.442;6.996;2023-01-19T04:41:10;17.00;;;9.50;;
4569;SDS011;2297;51.442;6.996;2023-01-19T04:43:37;18.27;;;9.05;;
4569;SDS011;2297;51.442;6.996;2023-01-19T04:46:04;16.75;;;8.20;;
4569;SDS011;2297;51.442;6.996;2023-01-19T04:48:30;14.70;;;8.07;;
4569;SDS011;2297;51.442;6.996;2023-01-19T04:50:57;20.38;;;8.63;;
4569;SDS011;2297;51.442;6.996;2023-01-19T04:53:25;22.10;;;8.80;;
4569;SDS011;2297;51.442;6.996;2023-01-19T04:55:52;16.25;;;9.20;;
4569;SDS011;2297;51.442;6.996;2023-01-19T04:58:19;16.40;;;8.73;;
4569;SDS011;2297;51.442;6.996;2023-01-19T05:00:46;19.45;;;9.27;;
4569;SDS011;2297;51.442;6.996;2023-01-19T05:03:13;18.42;;;8.73;;
4569;SDS011;2297;51.442;6.996;2023-01-19T05:05:39;17.98;;;9.02;;
4569;SDS011;2297;51.442;6.996;2023-01-19T05:08:06;16.65;;;8.57;;
4569;SDS011;2297;51.442;6.996;2023-01-19T05:10:34;16.85;;;9.00;;
4569;SDS011;2297;51.442;6.996;2023-01-19T05:13:01;16.27;;;8.68;;
4569;SDS011;2297;51.442;6.996;2023-01-19T05:15:28;23.92;;;10.45;;
4569;SDS011;2297;51.442;6.996;2023-01-19T05:17:55;19.85;;;9.70;;
4569;SDS011;2297;51.442;6.996;2023-01-19T05:20:22;17.42;;;9.13;;
4569;SDS011;2297;51.442;6.996;2023-01-19T05:22:48;20.35;;;9.80;;
4569;SDS011;2297;51.442;6.996;2023-01-19T05:25:16;18.70;;;9.25;;
4569;SDS011;2297;51.442;6.996;2023-01-19T05:27:44;17.08;;;9.77;;
4569;SDS011;2297;51.442;6.996;2023-01-19T05:30:11;17.55;;;9.00;;
4569;SDS011;2297;51.442;6.996;2023-01-19T05:32:38;19.45;;;9.02;;
4569;SDS011;2297;51.442;6.996;2023-01-19T05:35:06;17.17;;;8.95;;
4569;SDS011;2297;51.442;6.996;2023-01-19T05:37:33;17.52;;;9.15;;
4569;SDS011;2297;51.442;6.996;2023-01-19T05:40:00;18.40;;;9.20;;
4569;SDS011;2297;51.442;6.996;2023-01-19T05:42:26;19.05;;;9.48;;
4569;SDS011;2297;51.442;6.996;2023-01-19T05:44:54;14.32;;;9.05;;
4569;SDS011;2297;51.442;6.996;2023-01-19T05:47:21;15.18;;;8.10;;
4569;SDS011;2297;51.442;6.996;2023-01-19T05:49:48;13.13;;;7.55;;
4569;SDS011;2297;51.442;6.996;2023-01-19T05:52:15;14.70;;;8.18;;
4569;SDS011;2297;51.442;6.996;2023-01-19T05:54:41;13.43;;;7.55;;
4569;SDS011;2297;51.442;6.996;2023-01-19T05:57:08;13.55;;;7.50;;
4569;SDS011;2297;51.442;6.996;2023-01-19T05:59:35;12.93;;;7.38;;
4569;SDS011;2297;51.442;6.996;2023-01-19T06:02:04;13.88;;;7.55;;
4569;SDS011;2297;51.442;6.996;2023-01-19T06:04:30;11.45;;;6.90;;
4569;SDS011;2297;51.442;6.996;2023-01-19T06:07:06;12.77;;;7.25;;
4569;SDS011;2297;51.442;6.996;2023-01-19T06:09:33;14.10;;;7.60;;
4569;SDS011;2297;51.442;6.996;2023-01-19T06:11:59;13.88;;;7.63;;
4569;SDS011;2297;51.442;6.996;2023-01-19T06:14:26;14.27;;;7.95;;
4569;SDS011;2297;51.442;6.996;2023-01-19T06:16:53;14.27;;;8.23;;
4569;SDS011;2297;51.442;6.996;2023-01-19T06:19:21;12.18;;;7.57;;
4569;SDS011;2297;51.442;6.996;2023-01-19T06:21:48;16.05;;;9.27;;
4569;SDS011;2297;51.442;6.996;2023-01-19T06:24:16;14.35;;;8.55;;
4569;SDS011;2297;51.442;6.996;2023-01-19T06:26:43;15.55;;;8.80;;
4569;SDS011;2297;51.442;6.996;2023-01-19T06:29:10;14.45;;;8.63;;
4569;SDS011;2297;51.442;6.996;2023-01-19T06:31:37;15.85;;;8.98;;
4569;SDS011;2297;51.442;6.996;2023-01-19T06:34:04;16.08;;;9.13;;
4569;SDS011;2297;51.442;6.996;2023-01-19T06:36:32;13.93;;;8.55;;
4569;SDS011;2297;51.442;6.996;2023-01-19T06:38:59;16.77;;;8.93;;
4569;SDS011;2297;51.442;6.996;2023-01-19T06:41:27;13.00;;;7.45;;
4569;SDS011;2297;51.442;6.996;2023-01-19T06:43:54;13.50;;;7.85;;
4569;SDS011;2297;51.442;6.996;2023-01-19T06:46:20;13.15;;;7.63;;
4569;SDS011;2297;51.442;6.996;2023-01-19T06:48:47;11.00;;;7.30;;
4569;SDS011;2297;51.442;6.996;2023-01-19T06:51:14;12.10;;;7.47;;
4569;SDS011;2297;51.442;6.996;2023-01-19T06:53:41;11.80;;;6.75;;
4569;SDS011;2297;51.442;6.996;2023-01-19T06:56:23;8.82;;;5.75;;
4569;SDS011;2297;51.442;6.996;2023-01-19T06:58:50;10.18;;;6.65;;
4569;SDS011;2297;51.442;6.996;2023-01-19T07:01:17;10.43;;;6.28;;
4569;SDS011;2297;51.442;6.996;2023-01-19T07:03:44;9.93;;;6.28;;
4569;SDS011;2297;51.442;6.996;2023-01-19T07:06:11;11.05;;;6.80;;
4569;SDS011;2297;51.442;6.996;2023-01-19T07:08:37;11.70;;;7.28;;
4569;SDS011;2297;51.442;6.996;2023-01-19T07:11:06;12.25;;;7.45;;
4569;SDS011;2297;51.442;6.996;2023-01-19T07:13:36;15.07;;;7.57;;
4569;SDS011;2297;51.442;6.996;2023-01-19T07:16:04;13.88;;;8.23;;
4569;SDS011;2297;51.442;6.996;2023-01-19T07:18:31;14.45;;;8.07;;
4569;SDS011;2297;51.442;6.996;2023-01-19T07:20:58;13.82;;;8.60;;
4569;SDS011;2297;51.442;6.996;2023-01-19T07:23:25;15.50;;;9.30;;
4569;SDS011;2297;51.442;6.996;2023-01-19T07:25:54;15.52;;;9.40;;
4569;SDS011;2297;51.442;6.996;2023-01-19T07:28:22;17.02;;;10.55;;
4569;SDS011;2297;51.442;6.996;2023-01-19T07:30:50;16.55;;;9.43;;
4569;SDS011;2297;51.442;6.996;2023-01-19T07:33:17;15.77;;;9.07;;
4569;SDS011;2297;51.442;6.996;2023-01-19T07:35:45;17.23;;;9.65;;
4569;SDS011;2297;51.442;6.996;2023-01-19T07:38:12;20.10;;;10.45;;
4569;SDS011;2297;51.442;6.996;2023-01-19T07:40:39;16.02;;;9.40;;
4569;SDS011;2297;51.442;6.996;2023-01-19T07:43:05;23.30;;;10.73;;
4569;SDS011;2297;51.442;6.996;2023-01-19T07:45:33;20.05;;;10.38;;
4569;SDS011;2297;51.442;6.996;2023-01-19T07:48:00;19.88;;;10.48;;
4569;SDS011;2297;51.442;6.996;2023-01-19T07:50:27;23.08;;;11.07;;
4569;SDS011;2297;51.442;6.996;2023-01-19T07:52:54;17.25;;;9.60;;
4569;SDS011;2297;51.442;6.996;2023-01-19T07:55:21;17.88;;;10.13;;
4569;SDS011;2297;51.442;6.996;2023-01-19T07:57:49;19.27;;;10.18;;
4569;SDS011;2297;51.442;6.996;2023-01-19T08:00:16;19.80;;;10.13;;
4569;SDS011;2297;51.442;6.996;2023-01-19T08:02:47;19.05;;;8.73;;
4569;SDS011;2297;51.442;6.996;2023-01-19T08:05:15;16.33;;;9.20;;
4569;SDS011;2297;51.442;6.996;2023-01-19T08:07:42;18.58;;;9.43;;
4569;SDS011;2297;51.442;6.996;2023-01-19T08:10:17;16.42;;;9.55;;
4569;SDS011;2297;51.442;6.996;2023-01-19T08:12:47;17.55;;;9.77;;
4569;SDS011;2297;51.442;6.996;2023-01-19T08:15:13;18.90;;;9.90;;
4569;SDS011;2297;51.442;6.996;2023-01-19T08:17:40;19.10;;;10.48;;
4569;SDS011;2297;51.442;6.996;2023-01-19T08:20:07;20.73;;;10.25;;
4569;SDS011;2297;51.442;6.996;2023-01-19T08:22:35;24.63;;;10.82;;
4569;SDS011;2297;51.442;6.996;2023-01-19T08:25:01;19.40;;;10.68;;
4569;SDS011;2297;51.442;6.996;2023-01-19T08:27:30;19.05;;;10.55;;
4569;SDS011;2297;51.442;6.996;2023-01-19T08:29:56;19.58;;;10.00;;
4569;SDS011;2297;51.442;6.996;2023-01-19T08:32:23;21.08;;;11.20;;
4569;SDS011;2297;51.442;6.996;2023-01-19T08:34:50;18.58;;;10.20;;
4569;SDS011;2297;51.442;6.996;2023-01-19T08:37:16;20.00;;;10.68;;
4569;SDS011;2297;51.442;6.996;2023-01-19T08:39:43;24.67;;;10.95;;
4569;SDS011;2297;51.442;6.996;2023-01-19T08:42:10;19.60;;;10.82;;
4569;SDS011;2297;51.442;6.996;2023-01-19T08:44:37;20.40;;;10.82;;
4569;SDS011;2297;51.442;6.996;2023-01-19T08:47:04;22.38;;;11.70;;
4569;SDS011;2297;51.442;6.996;2023-01-19T08:49:32;21.67;;;11.85;;
4569;SDS011;2297;51.442;6.996;2023-01-19T08:51:59;22.50;;;12.15;;
4569;SDS011;2297;51.442;6.996;2023-01-19T08:54:27;22.10;;;12.27;;
4569;SDS011;2297;51.442;6.996;2023-01-19T08:56:53;25.48;;;13.68;;
4569;SDS011;2297;51.442;6.996;2023-01-19T08:59:20;25.17;;;13.73;;
4569;SDS011;2297;51.442;6.996;2023-01-19T09:01:48;28.02;;;14.35;;
4569;SDS011;2297;51.442;6.996;2023-01-19T09:04:15;25.27;;;13.55;;
4569;SDS011;2297;51.442;6.996;2023-01-19T09:06:41;25.38;;;14.27;;
4569;SDS011;2297;51.442;6.996;2023-01-19T09:09:08;27.90;;;15.02;;
4569;SDS011;2297;51.442;6.996;2023-01-19T09:11:35;29.17;;;15.48;;
4569;SDS011;2297;51.442;6.996;2023-01-19T09:14:02;27.90;;;14.98;;
4569;SDS011;2297;51.442;6.996;2023-01-19T09:16:29;30.10;;;15.38;;
4569;SDS011;2297;51.442;6.996;2023-01-19T09:18:57;30.75;;;16.10;;
4569;SDS011;2297;51.442;6.996;2023-01-19T09:21:24;26.60;;;15.10;;
4569;SDS011;2297;51.442;6.996;2023-01-19T09:23:51;25.30;;;14.52;;
4569;SDS011;2297;51.442;6.996;2023-01-19T09:26:18;26.13;;;14.82;;
4569;SDS011;2297;51.442;6.996;2023-01-19T09:28:46;26.85;;;14.85;;
4569;SDS011;2297;51.442;6.996;2023-01-19T09:31:13;26.48;;;14.85;;
4569;SDS011;2297;51.442;6.996;2023-01-19T09:33:40;26.13;;;15.35;;
4569;SDS011;2297;51.442;6.996;2023-01-19T09:36:08;25.85;;;15.18;;
4569;SDS011;2297;51.442;6.996;2023-01-19T09:38:34;31.80;;;14.10;;
4569;SDS011;2297;51.442;6.996;2023-01-19T09:41:02;28.00;;;14.50;;
4569;SDS011;2297;51.442;6.996;2023-01-19T09:43:32;29.50;;;14.38;;
4569;SDS011;2297;51.442;6.996;2023-01-19T09:46:03;29.73;;;15.63;;
4569;SDS011;2297;51.442;6.996;2023-01-19T09:48:41;24.70;;;14.25;;
4569;SDS011;2297;51.442;6.996;2023-01-19T09:51:12;22.23;;;13.43;;
4569;SDS011;2297;51.442;6.996;2023-01-19T09:53:52;24.35;;;14.05;;
4569;SDS011;2297;51.442;6.996;2023-01-19T09:56:22;27.05;;;14.15;;
4569;SDS011;2297;51.442;6.996;2023-01-19T09:58:49;28.55;;;14.38;;
4569;SDS011;2297;51.442;6.996;2023-01-19T10:01:23;27.77;;;14.70;;
4569;SDS011;2297;51.442;6.996;2023-01-19T10:04:04;29.52;;;14.15;;
4569;SDS011;2297;51.442;6.996;2023-01-19T10:07:10;29.02;;;15.27;;
4569;SDS011;2297;51.442;6.996;2023-01-19T10:09:47;29.75;;;16.23;;
4569;SDS011;2297;51.442;6.996;2023-01-19T10:12:25;33.25;;;16.90;;
4569;SDS011;2297;51.442;6.996;2023-01-19T10:15:02;29.27;;;16.20;;
4569;SDS011;2297;51.442;6.996;2023-01-19T10:17:42;30.98;;;16.00;;
4569;SDS011;2297;51.442;6.996;2023-01-19T10:20:15;31.27;;;16.48;;
4569;SDS011;2297;51.442;6.996;2023-01-19T10:22:51;31.98;;;15.98;;
4569;SDS011;2297;51.442;6.996;2023-01-19T10:25:19;32.58;;;16.50;;
4569;SDS011;2297;51.442;6.996;2023-01-19T10:27:49;29.50;;;16.23;;
4569;SDS011;2297;51.442;6.996;2023-01-19T10:30:16;33.28;;;16.88;;
4569;SDS011;2297;51.442;6.996;2023-01-19T10:32:46;33.00;;;16.60;;
4569;SDS011;2297;51.442;6.996;2023-01-19T10:35:13;38.78;;;16.65;;
4569;SDS011;2297;51.442;6.996;2023-01-19T10:37:45;39.00;;;17.05;;
4569;SDS011;2297;51.442;6.996;2023-01-19T10:40:16;35.42;;;15.80;;
4569;SDS011;2297;51.442;6.996;2023-01-19T10:42:50;33.08;;;15.90;;
4569;SDS011;2297;51.442;6.996;2023-01-19T10:45:17;39.10;;;16.83;;
4569;SDS011;2297;51.442;6.996;2023-01-19T10:47:46;34.28;;;17.13;;
4569;SDS011;2297;51.442;6.996;2023-01-19T10:50:21;35.30;;;17.23;;
4569;SDS011;2297;51.442;6.996;2023-01-19T10:52:49;35.60;;;16.35;;
4569;SDS011;2297;51.442;6.996;2023-01-19T10:55:26;38.72;;;15.85;;
4569;SDS011;2297;51.442;6.996;2023-01-19T10:57:54;33.53;;;16.35;;
4569;SDS011;2297;51.442;6.996;2023-01-19T11:00:30;34.42;;;16.38;;
4569;SDS011;2297;51.442;6.996;2023-01-19T11:03:01;31.23;;;15.55;;
4569;SDS011;2297;51.442;6.996;2023-01-19T11:05:30;31.85;;;15.55;;
4569;SDS011;2297;51.442;6.996;2023-01-19T11:10:52;39.28;;;16.33;;
4569;SDS011;2297;51.442;6.996;2023-01-19T11:13:26;34.70;;;15.38;;
4569;SDS011;2297;51.442;6.996;2023-01-19T11:15:53;34.30;;;15.45;;
4569;SDS011;2297;51.442;6.996;2023-01-19T11:18:23;38.47;;;15.23;;
4569;SDS011;2297;51.442;6.996;2023-01-19T11:20:54;31.98;;;15.38;;
4569;SDS011;2297;51.442;6.996;2023-01-19T11:23:24;31.98;;;15.88;;
4569;SDS011;2297;51.442;6.996;2023-01-19T11:25:55;33.90;;;14.98;;
4569;SDS011;2297;51.442;6.996;2023-01-19T11:28:25;37.15;;;15.68;;
4569;SDS011;2297;51.442;6.996;2023-01-19T11:30:54;34.10;;;14.80;;
4569;SDS011;2297;51.442;6.996;2023-01-19T11:33:22;35.60;;;16.67;;
4569;SDS011;2297;51.442;6.996;2023-01-19T11:35:50;37.92;;;16.13;;
4569;SDS011;2297;51.442;6.996;2023-01-19T11:38:27;40.00;;;17.95;;
4569;SDS011;2297;51.442;6.996;2023-01-19T11:40:56;39.40;;;18.20;;
4569;SDS011;2297;51.442;6.996;2023-01-19T11:43:26;45.15;;;18.40;;
4569;SDS011;2297;51.442;6.996;2023-01-19T11:45:54;39.20;;;17.55;;
4569;SDS011;2297;51.442;6.996;2023-01-19T11:48:24;41.90;;;19.13;;
4569;SDS011;2297;51.442;6.996;2023-01-19T11:50:56;40.25;;;18.25;;
4569;SDS011;2297;51.442;6.996;2023-01-19T11:53:29;42.08;;;19.70;;
4569;SDS011;2297;51.442;6.996;2023-01-19T11:56:00;40.55;;;18.50;;
4569;SDS011;2297;51.442;6.996;2023-01-19T11:58:29;38.10;;;18.65;;
4569;SDS011;2297;51.442;6.996;2023-01-19T12:00:58;40.63;;;18.50;;
4569;SDS011;2297;51.442;6.996;2023-01-19T12:03:29;40.10;;;18.90;;
4569;SDS011;2297;51.442;6.996;2023-01-19T12:06:00;43.83;;;19.50;;
4569;SDS011;2297;51.442;6.996;2023-01-19T12:08:33;46.58;;;20.25;;
4569;SDS011;2297;51.442;6.996;2023-01-19T12:11:03;40.92;;;18.33;;
4569;SDS011;2297;51.442;6.996;2023-01-19T12:13:34;47.05;;;18.42;;
4569;SDS011;2297;51.442;6.996;2023-01-19T12:16:03;43.60;;;19.23;;
4569;SDS011;2297;51.442;6.996;2023-01-19T12:18:35;49.22;;;18.17;;
4569;SDS011;2297;51.442;6.996;2023-01-19T12:21:05;41.78;;;18.33;;
4569;SDS011;2297;51.442;6.996;2023-01-19T12:23:38;43.13;;;18.75;;
4569;SDS011;2297;51.442;6.996;2023-01-19T12:26:24;41.80;;;18.55;;
4569;SDS011;2297;51.442;6.996;2023-01-19T12:28:55;44.17;;;17.95;;
4569;SDS011;2297;51.442;6.996;2023-01-19T12:31:25;44.38;;;18.02;;
4569;SDS011;2297;51.442;6.996;2023-01-19T12:33:52;39.70;;;17.90;;
4569;SDS011;2297;51.442;6.996;2023-01-19T12:36:34;41.13;;;17.55;;
4569;SDS011;2297;51.442;6.996;2023-01-19T12:39:04;39.80;;;17.73;;
4569;SDS011;2297;51.442;6.996;2023-01-19T12:41:40;37.90;;;16.85;;
4569;SDS011;2297;51.442;6.996;2023-01-19T12:46:59;35.10;;;17.65;;
4569;SDS011;2297;51.442;6.996;2023-01-19T12:49:44;40.85;;;17.77;;
4569;SDS011;2297;51.442;6.996;2023-01-19T12:52:21;38.22;;;18.15;;
4569;SDS011;2297;51.442;6.996;2023-01-19T12:54:58;36.33;;;16.25;;
4569;SDS011;2297;51.442;6.996;2023-01-19T12:57:31;43.10;;;17.20;;
4569;SDS011;2297;51.442;6.996;2023-01-19T13:00:02;38.03;;;16.05;;
4569;SDS011;2297;51.442;6.996;2023-01-19T13:05:18;37.08;;;16.13;;
4569;SDS011;2297;51.442;6.996;2023-01-19T13:10:51;39.78;;;16.38;;
4569;SDS011;2297;51.442;6.996;2023-01-19T13:13:21;36.95;;;16.45;;
4569;SDS011;2297;51.442;6.996;2023-01-19T13:15:49;37.13;;;16.50;;
4569;SDS011;2297;51.442;6.996;2023-01-19T13:18:16;39.65;;;18.92;;
4569;SDS011;2297;51.442;6.996;2023-01-19T13:20:45;38.95;;;18.15;;
4569;SDS011;2297;51.442;6.996;2023-01-19T13:23:18;42.90;;;17.88;;
4569;SDS011;2297;51.442;6.996;2023-01-19T13:25:58;40.35;;;17.35;;
4569;SDS011;2297;51.442;6.996;2023-01-19T13:28:36;40.15;;;17.58;;
4569;SDS011;2297;51.442;6.996;2023-01-19T13:31:06;35.63;;;16.35;;
4569;SDS011;2297;51.442;6.996;2023-01-19T13:33:38;36.67;;;17.90;;
4569;SDS011;2297;51.442;6.996;2023-01-19T13:36:17;34.83;;;17.20;;
4569;SDS011;2297;51.442;6.996;2023-01-19T13:38:46;35.22;;;15.45;;
4569;SDS011;2297;51.442;6.996;2023-01-19T13:41:14;40.67;;;18.02;;
4569;SDS011;2297;51.442;6.996;2023-01-19T13:43:45;35.58;;;17.20;;
4569;SDS011;2297;51.442;6.996;2023-01-19T13:46:13;43.25;;;17.20;;
4569;SDS011;2297;51.442;6.996;2023-01-19T13:48:50;43.08;;;18.00;;
4569;SDS011;2297;51.442;6.996;2023-01-19T13:51:19;37.78;;;16.73;;
4569;SDS011;2297;51.442;6.996;2023-01-19T13:53:52;43.75;;;17.13;;
4569;SDS011;2297;51.442;6.996;2023-01-19T13:56:21;33.78;;;15.13;;
4569;SDS011;2297;51.442;6.996;2023-01-19T13:59:01;36.17;;;14.88;;
4569;SDS011;2297;51.442;6.996;2023-01-19T14:01:36;34.25;;;15.45;;
4569;SDS011;2297;51.442;6.996;2023-01-19T14:04:04;31.35;;;13.85;;
4569;SDS011;2297;51.442;6.996;2023-01-19T14:06:35;31.27;;;13.55;;
4569;SDS011;2297;51.442;6.996;2023-01-19T14:09:07;27.00;;;13.50;;
4569;SDS011;2297;51.442;6.996;2023-01-19T14:11:41;24.85;;;12.90;;
4569;SDS011;2297;51.442;6.996;2023-01-19T14:14:22;32.42;;;13.52;;
4569;SDS011;2297;51.442;6.996;2023-01-19T14:16:52;32.73;;;13.93;;
4569;SDS011;2297;51.442;6.996;2023-01-19T14:19:19;27.30;;;14.13;;
4569;SDS011;2297;51.442;6.996;2023-01-19T14:21:45;26.92;;;12.35;;
4569;SDS011;2297;51.442;6.996;2023-01-19T14:24:23;24.95;;;12.98;;
4569;SDS011;2297;51.442;6.996;2023-01-19T14:26:54;29.27;;;13.15;;
4569;SDS011;2297;51.442;6.996;2023-01-19T14:29:35;31.15;;;12.88;;
4569;SDS011;2297;51.442;6.996;2023-01-19T14:32:10;30.23;;;13.63;;
4569;SDS011;2297;51.442;6.996;2023-01-19T14:34:39;27.30;;;13.35;;
4569;SDS011;2297;51.442;6.996;2023-01-19T14:37:16;29.38;;;13.38;;
4569;SDS011;2297;51.442;6.996;2023-01-19T14:39:45;36.40;;;13.73;;
4569;SDS011;2297;51.442;6.996;2023-01-19T14:42:14;26.83;;;12.93;;
4569;SDS011;2297;51.442;6.996;2023-01-19T14:44:47;25.15;;;13.60;;
4569;SDS011;2297;51.442;6.996;2023-01-19T14:47:20;29.90;;;13.63;;
4569;SDS011;2297;51.442;6.996;2023-01-19T14:49:53;32.80;;;14.70;;
4569;SDS011;2297;51.442;6.996;2023-01-19T14:52:23;31.30;;;14.02;;
4569;SDS011;2297;51.442;6.996;2023-01-19T14:54:53;32.88;;;13.43;;
4569;SDS011;2297;51.442;6.996;2023-01-19T14:57:22;30.70;;;13.68;;
4569;SDS011;2297;51.442;6.996;2023-01-19T14:59:50;27.00;;;13.40;;
4569;SDS011;2297;51.442;6.996;2023-01-19T15:02:17;30.60;;;13.23;;
4569;SDS011;2297;51.442;6.996;2023-01-19T15:04:44;27.60;;;12.60;;
4569;SDS011;2297;51.442;6.996;2023-01-19T15:07:13;31.58;;;13.27;;
4569;SDS011;2297;51.442;6.996;2023-01-19T15:09:42;23.95;;;11.95;;
4569;SDS011;2297;51.442;6.996;2023-01-19T15:12:10;34.05;;;13.45;;
4569;SDS011;2297;51.442;6.996;2023-01-19T15:14:38;28.10;;;12.48;;
4569;SDS011;2297;51.442;6.996;2023-01-19T15:17:08;25.15;;;12.40;;
4569;SDS011;2297;51.442;6.996;2023-01-19T15:19:39;28.83;;;13.50;;
4569;SDS011;2297;51.442;6.996;2023-01-19T15:22:08;24.15;;;11.57;;
4569;SDS011;2297;51.442;6.996;2023-01-19T15:24:36;26.95;;;12.43;;
4569;SDS011;2297;51.442;6.996;2023-01-19T15:27:03;23.27;;;11.45;;